createdAt,value
2017-07-05T00:01:03.469Z,1016.05
2017-07-05T00:02:13.411Z,1016.07
2017-07-05T00:03:22.381Z,1016.04
2017-07-05T00:04:32.330Z,1016.02
2017-07-05T00:05:42.585Z,1016.03
2017-07-05T00:06:52.521Z,1016
2017-07-05T00:08:02.777Z,1016.05
2017-07-05T00:09:12.387Z,1016.01
2017-07-05T00:10:22.643Z,1016.01
2017-07-05T00:11:32.581Z,1016.01
2017-07-05T00:12:42.515Z,1016
2017-07-05T00:13:52.129Z,1015.97
2017-07-05T00:15:01.743Z,1015.97
2017-07-05T00:16:11.673Z,1015.98
2017-07-05T00:17:21.614Z,1015.99
2017-07-05T00:18:31.546Z,1015.99
2017-07-05T00:19:41.476Z,1016.01
2017-07-05T00:20:51.408Z,1016.02
2017-07-05T00:22:01.006Z,1016.02
2017-07-05T00:23:10.285Z,1016.07
2017-07-05T00:24:19.937Z,1016.08
2017-07-05T00:25:29.542Z,1016.09
2017-07-05T00:26:38.825Z,1016.03
2017-07-05T00:27:48.755Z,1016.02
2017-07-05T00:28:59.015Z,1016
2017-07-05T00:30:08.953Z,1016
2017-07-05T00:31:18.236Z,1016.02
2017-07-05T00:32:28.173Z,1016.01
2017-07-05T00:33:38.422Z,1015.99
2017-07-05T00:34:48.372Z,1015.97
2017-07-05T00:35:57.979Z,1016.02
2017-07-05T00:37:08.240Z,1016.02
2017-07-05T00:38:18.498Z,1016.01
2017-07-05T00:39:28.425Z,1015.99
2017-07-05T00:40:38.348Z,1015.98
2017-07-05T00:41:47.956Z,1015.98
2017-07-05T00:42:57.895Z,1015.95
2017-07-05T00:44:07.837Z,1015.96
2017-07-05T00:45:18.089Z,1015.95
2017-07-05T00:46:28.016Z,1015.97
2017-07-05T00:47:37.305Z,1015.92
2017-07-05T00:48:47.241Z,1015.92
2017-07-05T00:49:57.170Z,1015.91
2017-07-05T00:51:06.782Z,1015.91
2017-07-05T00:52:16.397Z,1015.81
2017-07-05T00:53:26.007Z,1015.8
2017-07-05T00:54:35.630Z,1015.81
2017-07-05T00:55:45.567Z,1015.81
2017-07-05T00:56:55.186Z,1015.79
2017-07-05T00:58:04.796Z,1015.77
2017-07-05T00:59:14.092Z,1015.78
2017-07-05T01:00:23.701Z,1015.78
2017-07-05T01:01:33.631Z,1015.79
2017-07-05T01:02:43.884Z,1015.78
2017-07-05T01:03:54.144Z,1015.76
2017-07-05T01:05:04.137Z,1015.77
2017-07-05T01:06:14.080Z,1015.76
2017-07-05T01:07:23.040Z,1015.73
2017-07-05T01:08:32.653Z,1015.73
2017-07-05T01:09:41.949Z,1015.71
2017-07-05T01:10:51.885Z,1015.72
2017-07-05T01:12:01.494Z,1015.73
2017-07-05T01:13:11.740Z,1015.72
2017-07-05T01:14:21.674Z,1015.7
2017-07-05T01:15:31.926Z,1015.71
2017-07-05T01:16:42.189Z,1015.75
2017-07-05T01:17:51.843Z,1015.7
2017-07-05T01:19:02.095Z,1015.74
2017-07-05T01:20:12.029Z,1015.73
2017-07-05T01:21:22.296Z,1015.71
2017-07-05T01:22:32.575Z,1015.71
2017-07-05T01:23:42.510Z,1015.69
2017-07-05T01:24:52.118Z,1015.67
2017-07-05T01:26:01.408Z,1015.66
2017-07-05T01:27:11.015Z,1015.65
2017-07-05T01:28:21.274Z,1015.63
2017-07-05T01:29:30.896Z,1015.67
2017-07-05T01:30:40.822Z,1015.67
2017-07-05T01:31:50.759Z,1015.65
2017-07-05T01:33:00.052Z,1015.65
2017-07-05T01:34:09.986Z,1015.63
2017-07-05T01:35:20.238Z,1015.62
2017-07-05T01:36:30.172Z,1015.65
2017-07-05T01:37:40.098Z,1015.63
2017-07-05T01:38:50.025Z,1015.6
2017-07-05T01:40:00.289Z,1015.62
2017-07-05T01:41:10.226Z,1015.63
2017-07-05T01:42:20.479Z,1015.6
2017-07-05T01:43:30.411Z,1015.59
2017-07-05T01:44:40.344Z,1015.59
2017-07-05T01:45:49.965Z,1015.58
2017-07-05T01:46:59.583Z,1015.55
2017-07-05T01:48:09.831Z,1015.58
2017-07-05T01:49:19.775Z,1015.56
2017-07-05T01:50:29.713Z,1015.59
2017-07-05T01:51:39.971Z,1015.63
2017-07-05T01:52:49.920Z,1015.63
2017-07-05T01:54:00.184Z,1015.64
2017-07-05T01:55:10.110Z,1015.65
2017-07-05T01:56:20.366Z,1015.64
2017-07-05T01:57:29.329Z,1015.64
2017-07-05T01:58:39.275Z,1015.63
2017-07-05T01:59:49.524Z,1015.68
2017-07-05T02:00:59.137Z,1015.7
2017-07-05T02:02:08.768Z,1015.7
2017-07-05T02:03:19.016Z,1015.72
2017-07-05T02:04:28.616Z,1015.67
2017-07-05T02:05:38.227Z,1015.67
2017-07-05T02:06:47.912Z,1015.61
2017-07-05T02:07:58.178Z,1015.61
2017-07-05T02:09:08.422Z,1015.57
2017-07-05T02:10:18.351Z,1015.54
2017-07-05T02:11:27.964Z,1015.53
2017-07-05T02:12:37.895Z,1015.5
2017-07-05T02:13:47.509Z,1015.45
2017-07-05T02:14:57.456Z,1015.44
2017-07-05T02:16:07.059Z,1015.45
2017-07-05T02:17:16.342Z,1015.5
2017-07-05T02:18:26.290Z,1015.48
2017-07-05T02:19:35.906Z,1015.44
2017-07-05T02:20:46.164Z,1015.42
2017-07-05T02:21:56.094Z,1015.4
2017-07-05T02:23:06.019Z,1015.44
2017-07-05T02:24:16.263Z,1015.43
2017-07-05T02:25:26.186Z,1015.41
2017-07-05T02:26:36.119Z,1015.35
2017-07-05T02:27:46.373Z,1015.34
2017-07-05T02:28:56.314Z,1015.35
2017-07-05T02:30:06.570Z,1015.33
2017-07-05T02:31:16.563Z,1015.28
2017-07-05T02:32:25.799Z,1015.27
2017-07-05T02:33:35.737Z,1015.23
2017-07-05T02:34:45.668Z,1015.22
2017-07-05T02:35:55.640Z,1015.23
2017-07-05T02:37:05.252Z,1015.24
2017-07-05T02:38:15.492Z,1015.23
2017-07-05T02:39:24.792Z,1015.27
2017-07-05T02:40:34.729Z,1015.32
2017-07-05T02:41:44.343Z,1015.36
2017-07-05T02:42:54.587Z,1015.39
2017-07-05T02:44:03.549Z,1015.41
2017-07-05T02:45:13.476Z,1015.41
2017-07-05T02:46:23.407Z,1015.41
2017-07-05T02:47:33.022Z,1015.42
2017-07-05T02:48:42.318Z,1015.4
2017-07-05T02:49:51.610Z,1015.42
2017-07-05T02:51:01.860Z,1015.39
2017-07-05T02:52:11.473Z,1015.36
2017-07-05T02:53:21.084Z,1015.39
2017-07-05T02:54:31.029Z,1015.39
2017-07-05T02:55:40.629Z,1015.38
2017-07-05T02:56:50.568Z,1015.35
2017-07-05T02:58:00.179Z,1015.3
2017-07-05T02:59:10.112Z,1015.27
2017-07-05T03:00:19.715Z,1015.26
2017-07-05T03:01:29.640Z,1015.25
2017-07-05T03:02:39.909Z,1015.25
2017-07-05T03:03:49.830Z,1015.24
2017-07-05T03:04:59.760Z,1015.2
2017-07-05T03:06:09.690Z,1015.17
2017-07-05T03:07:19.974Z,1015.18
2017-07-05T03:08:29.582Z,1015.2
2017-07-05T03:09:39.512Z,1015.19
2017-07-05T03:10:49.777Z,1015.2
2017-07-05T03:12:00.016Z,1015.22
2017-07-05T03:13:09.947Z,1015.25
2017-07-05T03:14:19.881Z,1015.23
2017-07-05T03:15:30.140Z,1015.23
2017-07-05T03:16:39.749Z,1015.24
2017-07-05T03:17:50.004Z,1015.21
2017-07-05T03:18:59.621Z,1015.27
2017-07-05T03:20:09.542Z,1015.27
2017-07-05T03:21:19.509Z,1015.29
2017-07-05T03:22:29.492Z,1015.31
2017-07-05T03:23:39.375Z,1015.3
2017-07-05T03:24:48.984Z,1015.29
2017-07-05T03:25:58.913Z,1015.34
2017-07-05T03:27:08.193Z,1015.33
2017-07-05T03:28:17.798Z,1015.33
2017-07-05T03:29:27.732Z,1015.35
2017-07-05T03:30:37.682Z,1015.34
2017-07-05T03:31:47.951Z,1015.31
2017-07-05T03:32:57.237Z,1015.29
2017-07-05T03:34:07.173Z,1015.27
2017-07-05T03:35:16.463Z,1015.24
2017-07-05T03:36:26.393Z,1015.21
2017-07-05T03:37:36.652Z,1015.2
2017-07-05T03:38:46.913Z,1015.25
2017-07-05T03:39:57.163Z,1015.25
2017-07-05T03:41:07.104Z,1015.22
2017-07-05T03:42:17.355Z,1015.25
2017-07-05T03:43:27.296Z,1015.21
2017-07-05T03:44:37.238Z,1015.24
2017-07-05T03:45:47.497Z,1015.24
2017-07-05T03:46:57.431Z,1015.26
2017-07-05T03:48:07.359Z,1015.27
2017-07-05T03:49:16.647Z,1015.23
2017-07-05T03:50:26.256Z,1015.26
2017-07-05T03:51:36.505Z,1015.3
2017-07-05T03:52:46.761Z,1015.29
2017-07-05T03:53:56.695Z,1015.32
2017-07-05T03:55:06.635Z,1015.24
2017-07-05T03:56:16.898Z,1015.25
2017-07-05T03:57:26.828Z,1015.23
2017-07-05T03:58:36.120Z,1015.28
2017-07-05T03:59:46.069Z,1015.26
2017-07-05T04:00:55.365Z,1015.28
2017-07-05T04:02:05.306Z,1015.3
2017-07-05T04:03:14.594Z,1015.29
2017-07-05T04:04:24.847Z,1015.3
2017-07-05T04:05:34.790Z,1015.3
2017-07-05T04:06:44.718Z,1015.31
2017-07-05T04:07:54.674Z,1015.31
2017-07-05T04:09:04.281Z,1015.28
2017-07-05T04:10:14.219Z,1015.27
2017-07-05T04:11:24.470Z,1015.24
2017-07-05T04:12:34.078Z,1015.21
2017-07-05T04:13:44.030Z,1015.21
2017-07-05T04:14:53.961Z,1015.22
2017-07-05T04:16:03.892Z,1015.22
2017-07-05T04:17:13.174Z,1015.22
2017-07-05T04:18:22.781Z,1015.22
2017-07-05T04:19:32.718Z,1015.21
2017-07-05T04:20:42.650Z,1015.21
2017-07-05T04:21:52.894Z,1015.2
2017-07-05T04:23:02.507Z,1015.22
2017-07-05T04:24:12.752Z,1015.2
2017-07-05T04:25:22.682Z,1015.24
2017-07-05T04:26:32.942Z,1015.21
2017-07-05T04:27:42.873Z,1015.21
2017-07-05T04:28:52.164Z,1015.15
2017-07-05T04:30:02.091Z,1015.2
2017-07-05T04:31:12.033Z,1015.2
2017-07-05T04:32:21.004Z,1015.22
2017-07-05T04:33:30.301Z,1015.22
2017-07-05T04:34:40.231Z,1015.27
2017-07-05T04:35:50.484Z,1015.3
2017-07-05T04:37:00.420Z,1015.28
2017-07-05T04:38:10.675Z,1015.34
2017-07-05T04:39:20.591Z,1015.34
2017-07-05T04:40:30.190Z,1015.37
2017-07-05T04:41:40.127Z,1015.39
2017-07-05T04:42:49.737Z,1015.45
2017-07-05T04:43:58.706Z,1015.43
2017-07-05T04:45:08.316Z,1015.44
2017-07-05T04:46:18.243Z,1015.44
2017-07-05T04:47:28.492Z,1015.4
2017-07-05T04:48:38.095Z,1015.37
2017-07-05T04:49:47.401Z,1015.39
2017-07-05T04:50:57.013Z,1015.37
2017-07-05T04:52:06.306Z,1015.38
2017-07-05T04:53:15.925Z,1015.39
2017-07-05T04:54:26.185Z,1015.37
2017-07-05T04:55:35.803Z,1015.36
2017-07-05T04:56:45.733Z,1015.36
2017-07-05T04:57:55.349Z,1015.38
2017-07-05T04:59:04.954Z,1015.43
2017-07-05T05:00:14.885Z,1015.46
2017-07-05T05:01:24.501Z,1015.44
2017-07-05T05:02:34.425Z,1015.43
2017-07-05T05:03:44.405Z,1015.44
2017-07-05T05:04:54.653Z,1015.42
2017-07-05T05:06:03.934Z,1015.43
2017-07-05T05:07:13.862Z,1015.4
2017-07-05T05:08:24.122Z,1015.39
2017-07-05T05:09:34.054Z,1015.42
2017-07-05T05:10:43.665Z,1015.46
2017-07-05T05:11:53.926Z,1015.46
2017-07-05T05:13:04.172Z,1015.46
2017-07-05T05:14:13.466Z,1015.49
2017-07-05T05:15:23.398Z,1015.46
2017-07-05T05:16:33.016Z,1015.51
2017-07-05T05:17:42.638Z,1015.56
2017-07-05T05:18:52.574Z,1015.58
2017-07-05T05:20:02.184Z,1015.62
2017-07-05T05:21:11.797Z,1015.63
2017-07-05T05:22:21.805Z,1015.69
2017-07-05T05:23:31.732Z,1015.68
2017-07-05T05:24:41.010Z,1015.7
2017-07-05T05:25:50.307Z,1015.73
2017-07-05T05:27:00.241Z,1015.76
2017-07-05T05:28:10.499Z,1015.79
2017-07-05T05:29:20.771Z,1015.77
2017-07-05T05:30:30.722Z,1015.8
2017-07-05T05:31:40.650Z,1015.79
2017-07-05T05:32:49.953Z,1015.8
2017-07-05T05:33:59.227Z,1015.78
2017-07-05T05:35:09.161Z,1015.75
2017-07-05T05:36:19.096Z,1015.74
2017-07-05T05:37:29.033Z,1015.72
2017-07-05T05:38:37.997Z,1015.76
2017-07-05T05:39:48.258Z,1015.72
2017-07-05T05:40:58.175Z,1015.72
2017-07-05T05:42:08.442Z,1015.73
2017-07-05T05:43:18.407Z,1015.74
2017-07-05T05:44:28.666Z,1015.69
2017-07-05T05:45:38.272Z,1015.74
2017-07-05T05:46:48.213Z,1015.69
2017-07-05T05:47:58.471Z,1015.7
2017-07-05T05:49:08.406Z,1015.72
2017-07-05T05:50:18.661Z,1015.72
2017-07-05T05:51:28.581Z,1015.73
2017-07-05T05:52:38.186Z,1015.78
2017-07-05T05:53:48.123Z,1015.79
2017-07-05T05:54:58.372Z,1015.81
2017-07-05T05:56:07.342Z,1015.85
2017-07-05T05:57:17.289Z,1015.84
2017-07-05T05:58:27.553Z,1015.89
2017-07-05T05:59:37.489Z,1015.86
2017-07-05T06:00:47.108Z,1015.89
2017-07-05T06:01:57.056Z,1015.92
2017-07-05T06:03:05.694Z,1015.97
2017-07-05T06:04:15.625Z,1016.03
2017-07-05T06:05:25.553Z,1016.03
2017-07-05T06:06:35.164Z,1016.07
2017-07-05T06:07:44.455Z,1016.03
2017-07-05T06:08:54.076Z,1016
2017-07-05T06:10:03.684Z,1016.04
2017-07-05T06:11:13.295Z,1016.11
2017-07-05T06:12:23.540Z,1016.11
2017-07-05T06:13:33.156Z,1016.09
2017-07-05T06:14:42.445Z,1016.07
2017-07-05T06:15:52.696Z,1016.04
2017-07-05T06:17:02.298Z,1016.02
2017-07-05T06:18:12.555Z,1016.03
2017-07-05T06:19:22.485Z,1016.02
2017-07-05T06:20:32.731Z,1016.02
2017-07-05T06:21:42.025Z,1016.04
2017-07-05T06:22:51.967Z,1016.07
2017-07-05T06:24:01.256Z,1016.09
2017-07-05T06:25:11.187Z,1016.13
2017-07-05T06:26:20.837Z,1016.16
2017-07-05T06:27:30.794Z,1016.22
2017-07-05T06:28:40.729Z,1016.24
2017-07-05T06:29:50.675Z,1016.25
2017-07-05T06:31:00.601Z,1016.25
2017-07-05T06:32:10.529Z,1016.22
2017-07-05T06:33:20.781Z,1016.22
2017-07-05T06:34:31.035Z,1016.17
2017-07-05T06:35:41.292Z,1016.2
2017-07-05T06:36:51.231Z,1016.19
2017-07-05T06:38:01.165Z,1016.19
2017-07-05T06:39:11.100Z,1016.17
2017-07-05T06:40:20.711Z,1016.12
2017-07-05T06:41:30.336Z,1016.08
2017-07-05T06:42:40.273Z,1016.04
2017-07-05T06:43:49.571Z,1016.07
2017-07-05T06:44:59.190Z,1016.19
2017-07-05T06:46:09.128Z,1016.25
2017-07-05T06:47:18.751Z,1016.27
2017-07-05T06:48:29.004Z,1016.23
2017-07-05T06:49:38.617Z,1016.2
2017-07-05T06:50:48.876Z,1016.15
2017-07-05T06:51:58.805Z,1016.16
2017-07-05T06:53:08.416Z,1016.17
2017-07-05T06:54:18.353Z,1016.16
2017-07-05T06:55:28.284Z,1016.18
2017-07-05T06:56:37.899Z,1016.18
2017-07-05T06:57:47.833Z,1016.14
2017-07-05T06:58:58.091Z,1016.16
2017-07-05T07:00:08.042Z,1016.14
2017-07-05T07:01:17.972Z,1016.18
2017-07-05T07:02:27.905Z,1016.14
2017-07-05T07:03:37.853Z,1016.22
2017-07-05T07:04:47.458Z,1016.27
2017-07-05T07:05:57.710Z,1016.31
2017-07-05T07:07:07.974Z,1016.35
2017-07-05T07:08:18.232Z,1016.34
2017-07-05T07:09:28.165Z,1016.29
2017-07-05T07:10:38.415Z,1016.28
2017-07-05T07:11:48.027Z,1016.25
2017-07-05T07:12:57.646Z,1016.26
2017-07-05T07:14:07.260Z,1016.27
2017-07-05T07:15:17.523Z,1016.25
2017-07-05T07:16:27.461Z,1016.27
2017-07-05T07:17:37.073Z,1016.22
2017-07-05T07:18:47.013Z,1016.22
2017-07-05T07:19:57.275Z,1016.27
2017-07-05T07:21:07.214Z,1016.23
2017-07-05T07:22:16.517Z,1016.24
2017-07-05T07:23:26.134Z,1016.2
2017-07-05T07:24:35.419Z,1016.2
2017-07-05T07:25:45.032Z,1016.18
2017-07-05T07:26:54.964Z,1016.18
2017-07-05T07:28:04.958Z,1016.16
2017-07-05T07:29:14.578Z,1016.22
2017-07-05T07:30:24.535Z,1016.21
2017-07-05T07:31:34.135Z,1016.23
2017-07-05T07:32:44.068Z,1016.26
2017-07-05T07:33:53.680Z,1016.26
2017-07-05T07:35:02.972Z,1016.22
2017-07-05T07:36:12.914Z,1016.22
2017-07-05T07:37:23.165Z,1016.21
2017-07-05T07:38:33.098Z,1016.26
2017-07-05T07:39:43.362Z,1016.22
2017-07-05T07:40:53.298Z,1016.24
2017-07-05T07:42:02.912Z,1016.2
2017-07-05T07:43:12.521Z,1016.23
2017-07-05T07:44:22.466Z,1016.23
2017-07-05T07:45:32.724Z,1016.17
2017-07-05T07:46:42.014Z,1016.17
2017-07-05T07:47:51.623Z,1016.14
2017-07-05T07:49:01.618Z,1016.15
2017-07-05T07:50:11.875Z,1016.18
2017-07-05T07:51:21.820Z,1016.18
2017-07-05T07:52:31.764Z,1016.15
2017-07-05T07:53:41.379Z,1016.15
2017-07-05T07:54:51.321Z,1016.14
2017-07-05T07:56:01.577Z,1016.11
2017-07-05T07:57:11.202Z,1016.13
2017-07-05T07:58:20.485Z,1016.15
2017-07-05T07:59:30.413Z,1016.11
2017-07-05T08:00:40.340Z,1016.13
2017-07-05T08:01:50.270Z,1016.1
2017-07-05T08:02:59.892Z,1016.1
2017-07-05T08:04:09.841Z,1016.11
2017-07-05T08:05:20.082Z,1016.12
2017-07-05T08:06:29.699Z,1016.15
2017-07-05T08:07:39.305Z,1016.11
2017-07-05T08:08:48.926Z,1016.15
2017-07-05T08:09:58.845Z,1016.14
2017-07-05T08:11:09.106Z,1016.11
2017-07-05T08:12:19.355Z,1016.09
2017-07-05T08:13:28.644Z,1016.1
2017-07-05T08:14:38.570Z,1016.07
2017-07-05T08:15:48.185Z,1016.06
2017-07-05T08:16:58.119Z,1016.06
2017-07-05T08:18:07.077Z,1016.08
2017-07-05T08:19:16.702Z,1016.02
2017-07-05T08:20:26.635Z,1016.03
2017-07-05T08:21:36.246Z,1016.03
2017-07-05T08:22:46.189Z,1016.05
2017-07-05T08:23:56.118Z,1016.01
2017-07-05T08:25:06.049Z,1016.01
2017-07-05T08:26:15.665Z,1016.07
2017-07-05T08:27:25.610Z,1016.07
2017-07-05T08:28:35.223Z,1016.05
2017-07-05T08:29:45.156Z,1016.02
2017-07-05T08:30:55.098Z,1015.98
2017-07-05T08:32:05.027Z,1015.99
2017-07-05T08:33:14.314Z,1016
2017-07-05T08:34:23.924Z,1016.02
2017-07-05T08:35:33.859Z,1016.06
2017-07-05T08:36:43.153Z,1016.03
2017-07-05T08:37:53.087Z,1016
2017-07-05T08:39:02.708Z,1016
2017-07-05T08:40:12.635Z,1015.96
2017-07-05T08:41:22.246Z,1015.98
2017-07-05T08:42:32.197Z,1015.96
2017-07-05T08:43:42.135Z,1015.99
2017-07-05T08:44:52.073Z,1015.97
2017-07-05T08:46:02.340Z,1016
2017-07-05T08:47:11.307Z,1016.02
2017-07-05T08:48:20.922Z,1015.98
2017-07-05T08:49:30.855Z,1016.02
2017-07-05T08:50:40.157Z,1016.04
2017-07-05T08:51:50.089Z,1016.06
2017-07-05T08:53:00.015Z,1016.1
2017-07-05T08:54:09.631Z,1016.09
2017-07-05T08:55:18.281Z,1016.16
2017-07-05T08:56:27.901Z,1016.17
2017-07-05T08:57:38.153Z,1016.13
2017-07-05T08:58:47.765Z,1016.15
2017-07-05T08:59:57.389Z,1016.15
2017-07-05T09:01:06.995Z,1016.12
2017-07-05T09:02:17.259Z,1016.08
2017-07-05T09:03:27.199Z,1016.1
2017-07-05T09:04:36.814Z,1016.08
2017-07-05T09:05:47.062Z,1016.1
2017-07-05T09:06:57.315Z,1016.05
2017-07-05T09:08:07.242Z,1016.08
2017-07-05T09:09:16.859Z,1016.06
2017-07-05T09:10:27.127Z,1016.06
2017-07-05T09:11:37.070Z,1015.99
2017-07-05T09:12:47.018Z,1016
2017-07-05T09:13:56.950Z,1015.99
2017-07-05T09:15:06.888Z,1016
2017-07-05T09:16:16.829Z,1016.01
2017-07-05T09:17:26.434Z,1016.03
2017-07-05T09:18:35.717Z,1016.01
2017-07-05T09:19:45.976Z,1016.06
2017-07-05T09:20:55.595Z,1016.07
2017-07-05T09:22:05.200Z,1016.06
2017-07-05T09:23:15.115Z,1016.05
2017-07-05T09:24:24.404Z,1016.03
2017-07-05T09:25:34.334Z,1016.03
2017-07-05T09:26:44.269Z,1016.05
2017-07-05T09:27:53.874Z,1016.06
2017-07-05T09:29:03.488Z,1016.05
2017-07-05T09:30:13.425Z,1016.04
2017-07-05T09:31:22.713Z,1016.03
2017-07-05T09:32:32.006Z,1016.06
2017-07-05T09:33:41.941Z,1016.05
2017-07-05T09:34:51.889Z,1016.07
2017-07-05T09:36:01.501Z,1016.07
2017-07-05T09:37:10.791Z,1016.07
2017-07-05T09:38:20.401Z,1016.03
2017-07-05T09:39:30.342Z,1016.04
2017-07-05T09:40:39.963Z,1016.03
2017-07-05T09:41:49.579Z,1016.04
2017-07-05T09:42:59.186Z,1016.02
2017-07-05T09:44:08.799Z,1016.03
2017-07-05T09:45:18.103Z,1016.03
2017-07-05T09:46:27.718Z,1016.05
2017-07-05T09:47:37.330Z,1016.02
2017-07-05T09:48:46.943Z,1016.05
2017-07-05T09:49:56.875Z,1016.07
2017-07-05T09:51:06.170Z,1016.07
2017-07-05T09:52:15.781Z,1016.05
2017-07-05T09:53:26.032Z,1016.08
2017-07-05T09:54:35.317Z,1016.04
2017-07-05T09:55:45.568Z,1016.05
2017-07-05T09:56:55.831Z,1016.04
2017-07-05T09:58:05.762Z,1016.02
2017-07-05T09:59:15.686Z,1016
2017-07-05T10:00:25.945Z,1016.01
2017-07-05T10:01:35.558Z,1015.97
2017-07-05T10:02:45.487Z,1015.93
2017-07-05T10:03:55.426Z,1015.98
2017-07-05T10:05:05.674Z,1015.96
2017-07-05T10:06:15.592Z,1015.97
2017-07-05T10:07:25.205Z,1015.98
2017-07-05T10:08:34.498Z,1015.99
2017-07-05T10:09:44.437Z,1015.92
2017-07-05T10:10:54.055Z,1015.98
2017-07-05T10:12:03.998Z,1015.95
2017-07-05T10:13:14.263Z,1015.92
2017-07-05T10:14:23.548Z,1015.94
2017-07-05T10:15:33.490Z,1015.91
2017-07-05T10:16:43.749Z,1015.89
2017-07-05T10:17:54.010Z,1015.92
2017-07-05T10:19:03.629Z,1015.89
2017-07-05T10:20:13.241Z,1015.87
2017-07-05T10:21:23.181Z,1015.92
2017-07-05T10:22:32.799Z,1015.89
2017-07-05T10:23:42.415Z,1015.9
2017-07-05T10:24:52.662Z,1015.91
2017-07-05T10:26:01.949Z,1015.88
2017-07-05T10:27:11.886Z,1015.85
2017-07-05T10:28:21.816Z,1015.84
2017-07-05T10:29:31.427Z,1015.87
2017-07-05T10:30:41.698Z,1015.86
2017-07-05T10:31:51.313Z,1015.89
2017-07-05T10:33:00.930Z,1015.88
2017-07-05T10:34:10.864Z,1015.87
2017-07-05T10:35:20.481Z,1015.89
2017-07-05T10:36:29.767Z,1015.86
2017-07-05T10:37:40.025Z,1015.87
2017-07-05T10:38:49.637Z,1015.84
2017-07-05T10:39:58.935Z,1015.81
2017-07-05T10:41:09.186Z,1015.81
2017-07-05T10:42:19.117Z,1015.82
2017-07-05T10:43:28.728Z,1015.82
2017-07-05T10:44:38.345Z,1015.78
2017-07-05T10:45:48.281Z,1015.84
2017-07-05T10:46:57.577Z,1015.85
2017-07-05T10:48:07.522Z,1015.85
2017-07-05T10:49:17.456Z,1015.85
2017-07-05T10:50:27.072Z,1015.83
2017-07-05T10:51:36.681Z,1015.86
2017-07-05T10:52:46.616Z,1015.85
2017-07-05T10:53:56.236Z,1015.82
2017-07-05T10:55:05.530Z,1015.84
2017-07-05T10:56:14.825Z,1015.82
2017-07-05T10:57:24.762Z,1015.82
2017-07-05T10:58:34.383Z,1015.84
2017-07-05T10:59:44.638Z,1015.78
2017-07-05T11:00:54.907Z,1015.77
2017-07-05T11:02:03.885Z,1015.76
2017-07-05T11:03:13.510Z,1015.7
2017-07-05T11:04:23.126Z,1015.72
2017-07-05T11:05:33.107Z,1015.73
2017-07-05T11:06:42.739Z,1015.74
2017-07-05T11:07:52.998Z,1015.7
2017-07-05T11:09:03.250Z,1015.73
2017-07-05T11:10:13.191Z,1015.72
2017-07-05T11:11:22.803Z,1015.69
2017-07-05T11:12:32.737Z,1015.69
2017-07-05T11:13:42.675Z,1015.68
2017-07-05T11:14:52.285Z,1015.67
2017-07-05T11:16:02.224Z,1015.7
2017-07-05T11:17:11.831Z,1015.68
2017-07-05T11:18:21.762Z,1015.69
2017-07-05T11:19:31.381Z,1015.66
2017-07-05T11:20:41.647Z,1015.68
2017-07-05T11:21:51.589Z,1015.69
2017-07-05T11:23:01.518Z,1015.67
2017-07-05T11:24:11.448Z,1015.67
2017-07-05T11:25:21.707Z,1015.67
2017-07-05T11:26:31.646Z,1015.66
2017-07-05T11:27:41.263Z,1015.65
2017-07-05T11:28:50.883Z,1015.65
2017-07-05T11:30:01.154Z,1015.63
2017-07-05T11:31:11.087Z,1015.6
2017-07-05T11:32:21.019Z,1015.61
2017-07-05T11:33:30.639Z,1015.56
2017-07-05T11:34:40.612Z,1015.56
2017-07-05T11:35:50.872Z,1015.58
2017-07-05T11:37:01.134Z,1015.58
2017-07-05T11:38:10.418Z,1015.53
2017-07-05T11:39:20.038Z,1015.55
2017-07-05T11:40:29.660Z,1015.53
2017-07-05T11:41:39.925Z,1015.47
2017-07-05T11:42:49.553Z,1015.46
2017-07-05T11:43:59.491Z,1015.48
2017-07-05T11:45:09.739Z,1015.49
2017-07-05T11:46:19.673Z,1015.49
2017-07-05T11:47:28.962Z,1015.48
2017-07-05T11:48:39.222Z,1015.51
2017-07-05T11:49:49.154Z,1015.52
2017-07-05T11:50:58.766Z,1015.55
2017-07-05T11:52:08.374Z,1015.52
2017-07-05T11:53:17.982Z,1015.54
2017-07-05T11:54:28.241Z,1015.48
2017-07-05T11:55:38.169Z,1015.48
2017-07-05T11:56:48.427Z,1015.51
2017-07-05T11:57:58.356Z,1015.48
2017-07-05T11:59:07.969Z,1015.5
2017-07-05T12:00:17.923Z,1015.48
2017-07-05T12:01:27.870Z,1015.45
2017-07-05T12:02:37.482Z,1015.43
2017-07-05T12:03:46.443Z,1015.43
2017-07-05T12:04:55.732Z,1015.41
2017-07-05T12:06:05.340Z,1015.4
2017-07-05T12:07:15.280Z,1015.35
2017-07-05T12:08:25.537Z,1015.37
2017-07-05T12:09:35.792Z,1015.36
2017-07-05T12:10:44.767Z,1015.37
2017-07-05T12:11:54.712Z,1015.35
2017-07-05T12:13:04.678Z,1015.32
2017-07-05T12:14:13.979Z,1015.35
2017-07-05T12:15:23.605Z,1015.35
2017-07-05T12:16:33.227Z,1015.32
2017-07-05T12:17:42.850Z,1015.34
2017-07-05T12:18:52.774Z,1015.35
2017-07-05T12:20:03.041Z,1015.3
2017-07-05T12:21:12.979Z,1015.36
2017-07-05T12:22:23.229Z,1015.35
2017-07-05T12:23:33.470Z,1015.36
2017-07-05T12:24:42.757Z,1015.36
2017-07-05T12:25:52.044Z,1015.41
2017-07-05T12:27:01.994Z,1015.4
2017-07-05T12:28:11.923Z,1015.4
2017-07-05T12:29:21.854Z,1015.41
2017-07-05T12:30:32.108Z,1015.45
2017-07-05T12:31:42.034Z,1015.42
2017-07-05T12:32:51.645Z,1015.44
2017-07-05T12:34:01.577Z,1015.38
2017-07-05T12:35:11.191Z,1015.44
2017-07-05T12:36:20.801Z,1015.44
2017-07-05T12:37:30.743Z,1015.41
2017-07-05T12:38:40.999Z,1015.43
2017-07-05T12:39:50.607Z,1015.46
2017-07-05T12:41:00.539Z,1015.44
2017-07-05T12:42:09.510Z,1015.44
2017-07-05T12:43:19.447Z,1015.38
2017-07-05T12:44:29.705Z,1015.4
2017-07-05T12:45:39.633Z,1015.38
2017-07-05T12:46:49.887Z,1015.38
2017-07-05T12:47:59.887Z,1015.35
2017-07-05T12:49:09.843Z,1015.37
2017-07-05T12:50:20.095Z,1015.35
2017-07-05T12:51:29.113Z,1015.35
2017-07-05T12:52:38.404Z,1015.32
2017-07-05T12:53:47.699Z,1015.34
2017-07-05T12:54:57.311Z,1015.32
2017-07-05T12:56:07.597Z,1015.34
2017-07-05T12:57:17.204Z,1015.34
2017-07-05T12:58:27.464Z,1015.37
2017-07-05T12:59:37.399Z,1015.34
2017-07-05T13:00:46.686Z,1015.35
2017-07-05T13:01:56.977Z,1015.36
2017-07-05T13:03:07.242Z,1015.36
2017-07-05T13:04:17.509Z,1015.34
2017-07-05T13:05:27.807Z,1015.32
2017-07-05T13:06:37.747Z,1015.33
2017-07-05T13:07:47.677Z,1015.31
2017-07-05T13:08:57.938Z,1015.32
2017-07-05T13:10:08.196Z,1015.31
2017-07-05T13:11:18.458Z,1015.31
2017-07-05T13:12:28.389Z,1015.34
2017-07-05T13:13:38.331Z,1015.29
2017-07-05T13:14:48.271Z,1015.29
2017-07-05T13:15:57.872Z,1015.31
2017-07-05T13:17:08.127Z,1015.27
2017-07-05T13:18:18.384Z,1015.23
2017-07-05T13:19:28.322Z,1015.26
2017-07-05T13:20:38.257Z,1015.25
2017-07-05T13:21:48.199Z,1015.26
2017-07-05T13:22:57.826Z,1015.26
2017-07-05T13:24:07.754Z,1015.29
2017-07-05T13:25:17.521Z,1015.31
2017-07-05T13:26:26.812Z,1015.3
2017-07-05T13:27:37.075Z,1015.29
2017-07-05T13:28:47.024Z,1015.29
2017-07-05T13:29:56.970Z,1015.3
2017-07-05T13:31:06.894Z,1015.26
2017-07-05T13:32:16.832Z,1015.27
2017-07-05T13:33:27.079Z,1015.25
2017-07-05T13:34:36.691Z,1015.32
2017-07-05T13:35:46.941Z,1015.29
2017-07-05T13:36:56.888Z,1015.25
2017-07-05T13:38:06.833Z,1015.29
2017-07-05T13:39:16.443Z,1015.27
2017-07-05T13:40:25.741Z,1015.28
2017-07-05T13:41:36.062Z,1015.24
2017-07-05T13:42:46.308Z,1015.27
2017-07-05T13:43:56.239Z,1015.3
2017-07-05T13:45:05.533Z,1015.28
2017-07-05T13:46:15.852Z,1015.26
2017-07-05T13:47:25.472Z,1015.21
2017-07-05T13:48:35.724Z,1015.2
2017-07-05T13:49:45.336Z,1015.19
2017-07-05T13:50:54.951Z,1015.19
2017-07-05T13:52:04.253Z,1015.17
2017-07-05T13:53:14.174Z,1015.13
2017-07-05T13:54:24.108Z,1015.2
2017-07-05T13:55:34.049Z,1015.16
2017-07-05T13:56:43.348Z,1015.19
2017-07-05T13:57:52.968Z,1015.18
2017-07-05T13:59:02.921Z,1015.21
2017-07-05T14:00:12.859Z,1015.22
2017-07-05T14:01:22.481Z,1015.28
2017-07-05T14:02:32.423Z,1015.25
2017-07-05T14:03:41.713Z,1015.22
2017-07-05T14:04:51.652Z,1015.2
2017-07-05T14:06:01.269Z,1015.22
2017-07-05T14:07:11.218Z,1015.24
2017-07-05T14:08:21.140Z,1015.19